Costa Favolosa — ICPK — position and weather

sailwx.info

Track history (hours):
 
Tides and Currents Weather Stations Pressure Air Temp Water Temp Dewpoint Dewpoint Depression Visibility Wind Speed Wind Dir Waves Ship Positions

Costa Favolosa

Last reported at 2020-Mar-31 07:29 UTC. Time now 2020-Apr-02 22:40 UTC.
Position N 26°31' W 078°48'.

Length 291 m; draft 8.3 m.

Type: Passenger vessel. MMSI: 247311100.

Date/timePositionNaut miles runAvg speedWind from/ knotsBaromVisibWave heightAir tempDewpointWater temp
2020-Mar-31 07:29N 26°31' W 078°48'0 0.0
2020-Mar-31 03:17N 26°31' W 078°48'0 0.0
2020-Mar-31 00:32N 26°31' W 078°48'2 1.9
2020-Mar-30 23:31N 26°29' W 078°48'17 8.0
2020-Mar-30 21:27N 26°19' W 079°03'818.6
2020-Mar-30 21:00N 26°14' W 079°11'24 6.9
2020-Mar-30 17:30N 26°01' W 079°33'1211.7
2020-Mar-30 16:30N 25°54' W 079°44'19 9.7
2020-Mar-30 14:30N 25°47' W 080°04'1 9.8
2020-Mar-30 14:21N 25°46' W 080°05'1 4.1
2020-Mar-30 14:00N 25°47' W 080°04'487.8
2020-Mar-30 13:57N 25°46' W 080°09'4 2.1
2020-Mar-30 12:00N 25°47' W 080°04'6464.0
2020-Mar-30 11:59N 25°47' W 080°11'0 8.5
2020-Mar-30 11:59N 25°47' W 080°11'6 4.1
2020-Mar-30 10:30N 25°47' W 080°04'026.8
2020-Mar-30 10:29N 25°47' W 080°05'0 1.3
2020-Mar-30 10:29N 25°47' W 080°05'1 0.7
2020-Mar-30 08:30N 25°48' W 080°04'0 0.5
2020-Mar-30 08:01N 25°48' W 080°04'0 0.0
2020-Mar-30 06:01N 25°48' W 080°04'0 0.0
2020-Mar-30 05:30N 25°48' W 080°04'0 0.0
2020-Mar-30 04:31N 25°48' W 080°04'0 0.0
2020-Mar-30 02:01N 25°48' W 080°04'0 0.0
2020-Mar-30 01:30N 25°48' W 080°04'0 0.0
2020-Mar-29 22:30N 25°48' W 080°04'0 0.0
2020-Mar-29 21:30N 25°48' W 080°04'0 0.0
2020-Mar-29 20:30N 25°48' W 080°04'0 0.0
2020-Mar-29 19:30N 25°48' W 080°04'0 0.0
2020-Mar-29 19:00N 25°48' W 080°04'0 0.0
2020-Mar-29 18:01N 25°48' W 080°04'0 1.0
2020-Mar-29 17:54N 25°48' W 080°04'0 0.3
2020-Mar-29 17:30N 25°48' W 080°04'0 0.1
2020-Mar-29 16:25N 25°48' W 080°05'024.6
2020-Mar-29 16:24N 25°48' W 080°04'0 0.0
2020-Mar-29 14:30N 25°48' W 080°04'0 0.0
2020-Mar-29 13:30N 25°48' W 080°04'0 0.0
2020-Mar-29 13:00N 25°48' W 080°04'0 0.0
2020-Mar-29 12:27N 25°48' W 080°04'0 0.0
2020-Mar-29 11:30N 25°48' W 080°04'0 0.0
2020-Mar-29 09:00N 25°48' W 080°04'0 0.0
2020-Mar-29 03:31N 25°48' W 080°04'0 0.0
2020-Mar-29 02:30N 25°48' W 080°04'0 0.0
2020-Mar-28 23:57N 25°48' W 080°04'0 0.0
2020-Mar-28 23:27N 25°48' W 080°04'0 0.0
2020-Mar-28 21:00N 25°48' W 080°04'0 0.0
2020-Mar-28 19:30N 25°48' W 080°04'0 0.0
2020-Mar-28 15:30N 25°48' W 080°04'0 0.0
2020-Mar-28 12:24N 25°48' W 080°04'0 0.0
2020-Mar-28 11:54N 25°48' W 080°04'0 0.0
2020-Mar-28 11:30N 25°48' W 080°04'0 0.0
2020-Mar-28 08:30N 25°48' W 080°04'0 0.0
2020-Mar-28 06:30N 25°48' W 080°04'0 0.0
2020-Mar-28 06:00N 25°48' W 080°04'0 0.0
2020-Mar-28 03:00N 25°48' W 080°04'0 0.0
2020-Mar-28 02:30N 25°48' W 080°04'0 0.0
2020-Mar-28 02:00N 25°48' W 080°04'0 0.0
2020-Mar-28 01:00N 25°48' W 080°04'0 0.0
2020-Mar-27 22:30N 25°48' W 080°04'0 0.0
2020-Mar-27 21:31N 25°48' W 080°04'0 0.0
2020-Mar-27 17:00N 25°48' W 080°04'0 0.0
2020-Mar-27 16:30N 25°48' W 080°04'0 0.0
2020-Mar-27 15:57N 25°48' W 080°04'0 0.0
2020-Mar-27 15:00N 25°48' W 080°04'0 0.0
2020-Mar-27 13:30N 25°48' W 080°04'0 0.0
2020-Mar-27 12:30N 25°48' W 080°04'0 0.0
2020-Mar-27 12:00N 25°48' W 080°04'0 0.0
2020-Mar-27 10:30N 25°48' W 080°04'0 0.0
2020-Mar-27 10:00N 25°48' W 080°04'0 0.0
2020-Mar-27 08:00N 25°48' W 080°04'0 0.0
2020-Mar-27 06:00N 25°48' W 080°04'0 0.0
2020-Mar-27 03:27N 25°48' W 080°04'0 0.0
2020-Mar-26 21:30N 25°48' W 080°04'1 1.1
2020-Mar-26 21:00N 25°48' W 080°04'2 0.6
2020-Mar-26 18:00N 25°47' W 080°03'0 0.1
2020-Mar-26 17:30N 25°47' W 080°03'23 9.1
2020-Mar-26 15:00N 25°27' W 079°51'12 8.2
2020-Mar-26 13:30N 25°15' W 079°46'  
2020-Mar-21 23:30N 17°19' W 063°01'1817.8
2020-Mar-21 22:28N 17°36' W 063°08'2510.3
2020-Mar-21 20:03N 18°01' W 063°03'0 0.0
2020-Mar-21 19:15N 18°01' W 063°03'0 0.0
2020-Mar-21 17:16N 18°01' W 063°03'0 0.0
2020-Mar-21 13:21N 18°01' W 063°03'0 0.0
2020-Mar-21 11:15N 18°01' W 063°03'11 6.1
2020-Mar-21 09:26N 17°50' W 063°06'  
Track history (hours):
 
Tides and Currents Weather Stations Pressure Air Temp Water Temp Dewpoint Dewpoint Depression Visibility Wind Speed Wind Dir Waves Ship Positions

Costa Favolosa

Last reported at 2020-Mar-31 07:29 UTC. Time now 2020-Apr-02 22:40 UTC.
Position N 26°31' W 078°48'.

Length 291 m; draft 8.3 m.

Type: Passenger vessel. MMSI: 247311100.

Date/timePositionNaut miles runAvg speedWind from/ knotsBaromVisibWave heightAir tempDewpointWater temp
2020-Mar-31 07:29N 26°31' W 078°48'0 0.0
2020-Mar-31 03:17N 26°31' W 078°48'0 0.0
2020-Mar-31 00:32N 26°31' W 078°48'2 1.9
2020-Mar-30 23:31N 26°29' W 078°48'17 8.0
2020-Mar-30 21:27N 26°19' W 079°03'818.6
2020-Mar-30 21:00N 26°14' W 079°11'24 6.9
2020-Mar-30 17:30N 26°01' W 079°33'1211.7
2020-Mar-30 16:30N 25°54' W 079°44'19 9.7
2020-Mar-30 14:30N 25°47' W 080°04'1 9.8
2020-Mar-30 14:21N 25°46' W 080°05'1 4.1
2020-Mar-30 14:00N 25°47' W 080°04'487.8
2020-Mar-30 13:57N 25°46' W 080°09'4 2.1
2020-Mar-30 12:00N 25°47' W 080°04'6464.0
2020-Mar-30 11:59N 25°47' W 080°11'0 8.5
2020-Mar-30 11:59N 25°47' W 080°11'6 4.1
2020-Mar-30 10:30N 25°47' W 080°04'026.8
2020-Mar-30 10:29N 25°47' W 080°05'0 1.3
2020-Mar-30 10:29N 25°47' W 080°05'1 0.7
2020-Mar-30 08:30N 25°48' W 080°04'0 0.5
2020-Mar-30 08:01N 25°48' W 080°04'0 0.0
2020-Mar-30 06:01N 25°48' W 080°04'0 0.0
2020-Mar-30 05:30N 25°48' W 080°04'0 0.0
2020-Mar-30 04:31N 25°48' W 080°04'0 0.0
2020-Mar-30 02:01N 25°48' W 080°04'0 0.0
2020-Mar-30 01:30N 25°48' W 080°04'0 0.0
2020-Mar-29 22:30N 25°48' W 080°04'0 0.0
2020-Mar-29 21:30N 25°48' W 080°04'0 0.0
2020-Mar-29 20:30N 25°48' W 080°04'0 0.0
2020-Mar-29 19:30N 25°48' W 080°04'0 0.0
2020-Mar-29 19:00N 25°48' W 080°04'0 0.0
2020-Mar-29 18:01N 25°48' W 080°04'0 1.0
2020-Mar-29 17:54N 25°48' W 080°04'0 0.3
2020-Mar-29 17:30N 25°48' W 080°04'0 0.1
2020-Mar-29 16:25N 25°48' W 080°05'024.6
2020-Mar-29 16:24N 25°48' W 080°04'0 0.0
2020-Mar-29 14:30N 25°48' W 080°04'0 0.0
2020-Mar-29 13:30N 25°48' W 080°04'0 0.0
2020-Mar-29 13:00N 25°48' W 080°04'0 0.0
2020-Mar-29 12:27N 25°48' W 080°04'0 0.0
2020-Mar-29 11:30N 25°48' W 080°04'0 0.0
2020-Mar-29 09:00N 25°48' W 080°04'0 0.0
2020-Mar-29 03:31N 25°48' W 080°04'0 0.0
2020-Mar-29 02:30N 25°48' W 080°04'0 0.0
2020-Mar-28 23:57N 25°48' W 080°04'0 0.0
2020-Mar-28 23:27N 25°48' W 080°04'0 0.0
2020-Mar-28 21:00N 25°48' W 080°04'0 0.0
2020-Mar-28 19:30N 25°48' W 080°04'0 0.0
2020-Mar-28 15:30N 25°48' W 080°04'0 0.0
2020-Mar-28 12:24N 25°48' W 080°04'0 0.0
2020-Mar-28 11:54N 25°48' W 080°04'0 0.0
2020-Mar-28 11:30N 25°48' W 080°04'0 0.0
2020-Mar-28 08:30N 25°48' W 080°04'0 0.0
2020-Mar-28 06:30N 25°48' W 080°04'0 0.0
2020-Mar-28 06:00N 25°48' W 080°04'0 0.0
2020-Mar-28 03:00N 25°48' W 080°04'0 0.0
2020-Mar-28 02:30N 25°48' W 080°04'0 0.0
2020-Mar-28 02:00N 25°48' W 080°04'0 0.0
2020-Mar-28 01:00N 25°48' W 080°04'0 0.0
2020-Mar-27 22:30N 25°48' W 080°04'0 0.0
2020-Mar-27 21:31N 25°48' W 080°04'0 0.0
2020-Mar-27 17:00N 25°48' W 080°04'0 0.0
2020-Mar-27 16:30N 25°48' W 080°04'0 0.0
2020-Mar-27 15:57N 25°48' W 080°04'0 0.0
2020-Mar-27 15:00N 25°48' W 080°04'0 0.0
2020-Mar-27 13:30N 25°48' W 080°04'0 0.0
2020-Mar-27 12:30N 25°48' W 080°04'0 0.0
2020-Mar-27 12:00N 25°48' W 080°04'0 0.0
2020-Mar-27 10:30N 25°48' W 080°04'0 0.0
2020-Mar-27 10:00N 25°48' W 080°04'0 0.0
2020-Mar-27 08:00N 25°48' W 080°04'0 0.0
2020-Mar-27 06:00N 25°48' W 080°04'0 0.0
2020-Mar-27 03:27N 25°48' W 080°04'0 0.0
2020-Mar-26 21:30N 25°48' W 080°04'1 1.1
2020-Mar-26 21:00N 25°48' W 080°04'2 0.6
2020-Mar-26 18:00N 25°47' W 080°03'0 0.1
2020-Mar-26 17:30N 25°47' W 080°03'23 9.1
2020-Mar-26 15:00N 25°27' W 079°51'12 8.2
2020-Mar-26 13:30N 25°15' W 079°46'  
2020-Mar-21 23:30N 17°19' W 063°01'1817.8
2020-Mar-21 22:28N 17°36' W 063°08'2510.3
2020-Mar-21 20:03N 18°01' W 063°03'0 0.0
2020-Mar-21 19:15N 18°01' W 063°03'0 0.0
2020-Mar-21 17:16N 18°01' W 063°03'0 0.0
2020-Mar-21 13:21N 18°01' W 063°03'0 0.0
2020-Mar-21 11:15N 18°01' W 063°03'11 6.1
2020-Mar-21 09:26N 17°50' W 063°06'  

Dump ship's entire track history